Belott, Texas
Current Conditions -  °F | °C
As of 2:35 PM on Saturday 25 Oct 2014 (Local Time) from KDKR Reporting Station
Clear Clear  
Wind Chill: 84°   Ceiling: Unl
Heat Index: 86°   Visibility: NA
Dew Point: 64°   Wind: 0mph
Humidity: 51%   Direction: NA
Pressure: 30.14"   Gusts: NA
Location:  31.2828°N, 95.4821°W
Report Text: KDKR 251935Z AUTO 00000KT CLR 29/18 A3014 RMK AO2
Loading
Personal Weather Stations






























Interactive Weather Map
Tropical Storm Tracking
New forecast layout! Learn more

10-Day Weather Forecast

Advertisements
Track Severe Weather on mobile